Time;durP1;ratioP1;P1;durP2;ratioP2;P2;SDS_P1;SDS_P2;PMS_P1;PMS_P2;Temp;Humidity;BMP_temperature;BMP_pressure;BME280_temperature;BME280_humidity;BME280_pressure;Samples;Min_cycle;Max_cycle;Signal;HPM_P1;HPM_P2
2023/04/22 00:01:53;;;;;;;4.60;4.20;;;11.80;99.90;;;;;;4965600;28;20050;-80
2023/04/22 00:04:20;;;;;;;5.05;3.90;;;13.80;99.90;;;;;;4960368;28;20321;-80
2023/04/22 00:06:48;;;;;;;5.93;3.97;;;12.00;99.90;;;;;;4958578;28;20054;-79
2023/04/22 00:09:14;;;;;;;3.97;3.50;;;12.00;99.90;;;;;;4964731;28;20442;-80
2023/04/22 00:11:41;;;;;;;4.72;3.65;;;13.60;99.90;;;;;;4961877;28;20054;-80
2023/04/22 00:14:08;;;;;;;4.25;3.85;;;12.20;99.90;;;;;;4966783;28;20050;-79
2023/04/22 00:16:34;;;;;;;4.80;3.88;;;12.20;99.90;;;;;;4962141;28;20091;-79
2023/04/22 00:18:59;;;;;;;9.60;4.07;;;12.20;99.90;;;;;;4965715;28;20535;-79
2023/04/22 00:21:26;;;;;;;7.90;4.32;;;14.00;99.90;;;;;;4963080;28;20051;-79
2023/04/22 00:23:51;;;;;;;5.38;4.65;;;13.00;99.90;;;;;;4968474;28;20058;-81
2023/04/22 00:26:20;;;;;;;5.50;4.15;;;12.40;99.90;;;;;;4980050;28;20055;-80
2023/04/22 00:28:45;;;;;;;5.40;4.15;;;14.00;99.90;;;;;;4946527;28;20109;-79
2023/04/22 00:31:11;;;;;;;4.78;4.38;;;12.00;99.90;;;;;;4945227;28;20617;-79
2023/04/22 00:33:40;;;;;;;4.25;3.95;;;12.10;99.90;;;;;;4955804;28;20047;-79
2023/04/22 00:36:06;;;;;;;5.10;4.57;;;12.10;99.90;;;;;;4961090;28;20136;-80
2023/04/22 00:38:36;;;;;;;4.95;4.45;;;12.00;99.90;;;;;;4943904;28;20086;-80
2023/04/22 00:41:01;;;;;;;6.03;4.65;;;12.00;99.90;;;;;;4959039;28;20054;-80
2023/04/22 00:43:28;;;;;;;6.43;3.90;;;11.90;99.90;;;;;;4961431;28;20506;-80
2023/04/22 00:45:57;;;;;;;6.40;4.60;;;11.60;99.90;;;;;;4943114;28;20101;-80
2023/04/22 00:48:24;;;;;;;5.07;4.28;;;11.90;99.90;;;;;;4927105;28;20091;-80
2023/04/22 00:50:50;;;;;;;6.68;5.10;;;11.80;99.90;;;;;;4943502;28;20414;-80
2023/04/22 00:53:16;;;;;;;4.88;4.47;;;13.40;99.90;;;;;;4943704;28;20058;-80
2023/04/22 00:55:41;;;;;;;6.07;4.85;;;11.60;99.90;;;;;;4942734;28;20043;-80
2023/04/22 00:58:08;;;;;;;5.00;4.60;;;10.10;99.90;;;;;;4975541;28;20053;-80
2023/04/22 01:00:34;;;;;;;5.32;4.82;;;11.70;99.90;;;;;;4959568;28;20153;-80
2023/04/22 01:03:01;;;;;;;6.05;5.20;;;13.10;99.90;;;;;;4964249;28;20058;-80
2023/04/22 01:05:30;;;;;;;5.90;5.40;;;11.40;99.90;;;;;;4965274;28;20069;-80
2023/04/22 01:07:56;;;;;;;6.15;5.55;;;11.40;99.90;;;;;;4963968;28;20446;-80
2023/04/22 01:10:23;;;;;;;6.22;5.13;;;11.30;99.90;;;;;;4965905;28;20087;-81
2023/04/22 01:12:48;;;;;;;8.20;5.75;;;11.20;99.90;;;;;;4963043;28;20115;-80
2023/04/22 01:15:14;;;;;;;5.93;5.35;;;11.20;99.90;;;;;;4962625;28;20059;-81
2023/04/22 01:17:40;;;;;;;7.28;6.22;;;11.20;99.90;;;;;;4962403;28;20134;-80
2023/04/22 01:20:10;;;;;;;6.88;6.20;;;12.40;99.90;;;;;;4964422;28;20051;-80
2023/04/22 01:22:40;;;;;;;6.65;6.07;;;11.10;99.90;;;;;;4964608;28;20532;-80
2023/04/22 01:25:10;;;;;;;6.53;5.93;;;11.00;99.90;;;;;;4969128;28;20062;-80
2023/04/22 01:27:38;;;;;;;6.03;5.53;;;11.00;99.90;;;;;;4943248;28;20406;-80
2023/04/22 01:30:05;;;;;;;5.70;5.20;;;11.50;99.90;;;;;;4961424;28;20081;-80
2023/04/22 01:32:31;;;;;;;7.50;6.53;;;11.10;99.90;;;;;;4964196;28;20077;-78
2023/04/22 01:35:00;;;;;;;8.00;7.20;;;11.10;99.90;;;;;;4962478;28;20058;-79
2023/04/22 01:37:29;;;;;;;10.55;6.38;;;11.10;99.90;;;;;;4962444;28;20403;-78
2023/04/22 01:39:57;;;;;;;6.85;6.25;;;11.10;99.90;;;;;;4948480;28;20458;-79
2023/04/22 01:42:23;;;;;;;7.70;6.75;;;12.10;99.90;;;;;;4962080;28;20058;-79
2023/04/22 01:44:49;;;;;;;9.95;7.95;;;11.10;99.90;;;;;;4961428;28;20051;-79
2023/04/22 01:47:14;;;;;;;7.50;6.57;;;13.30;99.90;;;;;;4946445;28;20062;-79
2023/04/22 01:49:40;;;;;;;6.93;6.28;;;11.10;99.90;;;;;;4962962;28;20055;-79
2023/04/22 01:52:07;;;;;;;6.93;6.32;;;11.10;99.90;;;;;;4960763;28;20078;-79
2023/04/22 01:54:32;;;;;;;6.15;5.65;;;11.10;99.90;;;;;;4965044;28;20410;-79
2023/04/22 01:57:00;;;;;;;8.93;6.47;;;12.20;99.90;;;;;;4961757;28;20043;-79
2023/04/22 01:59:28;;;;;;;7.07;6.38;;;13.10;99.90;;;;;;4962351;28;20058;-79
2023/04/22 02:01:54;;;;;;;6.30;5.75;;;11.10;99.90;;;;;;4962692;28;20054;-79
2023/04/22 02:04:23;;;;;;;6.68;6.03;;;11.20;99.90;;;;;;4944515;28;20050;-80
2023/04/22 02:06:49;;;;;;;6.93;6.32;;;11.00;99.90;;;;;;4963329;28;20049;-79
2023/04/22 02:09:15;;;;;;;7.13;6.53;;;12.10;99.90;;;;;;4961098;28;20059;-79
2023/04/22 02:11:40;;;;;;;7.13;6.28;;;10.90;99.90;;;;;;4917659;28;20149;-80
2023/04/22 02:14:06;;;;;;;7.68;7.00;;;10.90;99.90;;;;;;4961945;28;20198;-80
2023/04/22 02:16:32;;;;;;;6.72;6.13;;;11.00;99.90;;;;;;4962927;28;20410;-80
2023/04/22 02:18:59;;;;;;;6.88;6.25;;;10.80;99.90;;;;;;4963246;28;20469;-80
2023/04/22 02:21:25;;;;;;;7.03;6.13;;;10.80;99.90;;;;;;4961225;28;20053;-80
2023/04/22 02:23:54;;;;;;;7.82;6.90;;;10.80;99.90;;;;;;4959981;28;20502;-79
2023/04/22 02:26:24;;;;;;;8.32;7.10;;;13.00;99.90;;;;;;4960443;28;20504;-79
2023/04/22 02:28:51;;;;;;;9.07;7.78;;;10.70;99.90;;;;;;4945555;28;20087;-80
2023/04/22 02:31:18;;;;;;;7.95;7.25;;;10.60;99.90;;;;;;4960922;28;20202;-79
2023/04/22 02:33:43;;;;;;;7.80;7.10;;;10.50;99.90;;;;;;4975892;28;20541;-79
2023/04/22 02:36:12;;;;;;;9.50;8.32;;;12.50;99.90;;;;;;4961726;28;20469;-80
2023/04/22 02:38:38;;;;;;;8.23;7.47;;;12.70;99.90;;;;;;4950581;28;20058;-79
2023/04/22 02:41:03;;;;;;;8.70;7.70;;;10.40;99.90;;;;;;4960636;28;20515;-80
2023/04/22 02:43:29;;;;;;;7.40;6.80;;;10.40;99.90;;;;;;4961549;28;20069;-80
2023/04/22 02:45:58;;;;;;;8.70;7.80;;;10.30;99.90;;;;;;4976471;28;20082;-79
2023/04/22 02:48:23;;;;;;;7.65;6.95;;;11.00;99.90;;;;;;4944567;28;20058;-80
2023/04/22 02:50:52;;;;;;;7.70;7.00;;;11.40;99.90;;;;;;4960709;28;20121;-81
2023/04/22 02:53:18;;;;;;;8.63;7.80;;;11.30;99.90;;;;;;4962368;28;21804;-80
2023/04/22 02:55:46;;;;;;;8.77;7.55;;;10.50;99.90;;;;;;4944604;28;20059;-80
2023/04/22 02:58:11;;;;;;;8.57;7.53;;;10.60;99.90;;;;;;4965976;28;20054;-80
2023/04/22 03:00:38;;;;;;;9.20;8.32;;;10.60;99.90;;;;;;4945560;28;20050;-80
2023/04/22 03:03:07;;;;;;;8.73;7.85;;;10.20;99.90;;;;;;4961506;28;20051;-80
2023/04/22 03:05:33;;;;;;;9.70;8.77;;;10.40;99.90;;;;;;4975732;28;20050;-81
2023/04/22 03:07:58;;;;;;;13.75;8.90;;;12.00;99.90;;;;;;4959880;28;20047;-80
2023/04/22 03:10:24;;;;;;;9.57;8.38;;;12.20;99.90;;;;;;4949737;28;20067;-80
2023/04/22 03:12:49;;;;;;;9.80;8.27;;;10.70;99.90;;;;;;4966239;28;20129;-81
2023/04/22 03:15:15;;;;;;;12.30;8.80;;;10.80;99.90;;;;;;4966097;28;20142;-80
2023/04/22 03:17:44;;;;;;;9.30;8.40;;;12.30;99.90;;;;;;4966277;28;20042;-80
2023/04/22 03:20:12;;;;;;;9.88;8.98;;;10.30;99.90;;;;;;4965369;28;20053;-80
2023/04/22 03:22:39;;;;;;;9.20;8.38;;;10.30;99.90;;;;;;4959362;28;20038;-80
2023/04/22 03:25:05;;;;;;;9.57;8.40;;;10.30;99.90;;;;;;4958760;28;20490;-80
2023/04/22 03:27:32;;;;;;;9.48;8.55;;;10.30;99.90;;;;;;4959719;28;20391;-80
2023/04/22 03:29:57;;;;;;;9.88;8.88;;;12.60;99.90;;;;;;4961165;28;20055;-80
2023/04/22 03:32:26;;;;;;;10.73;9.73;;;10.10;99.90;;;;;;4960875;28;20057;-80
2023/04/22 03:34:52;;;;;;;11.73;9.43;;;12.00;99.90;;;;;;4960339;28;20054;-80
2023/04/22 03:37:18;;;;;;;9.90;8.90;;;10.20;99.90;;;;;;4945570;28;20051;-80
2023/04/22 03:39:43;;;;;;;11.18;8.60;;;11.00;99.90;;;;;;4960390;28;20046;-80
2023/04/22 03:42:10;;;;;;;11.13;10.02;;;11.70;99.90;;;;;;4944422;28;20605;-80
2023/04/22 03:44:41;;;;;;;10.73;8.88;;;8.80;99.90;;;;;;4960379;28;20047;-80
2023/04/22 03:47:08;;;;;;;10.68;9.68;;;10.20;99.90;;;;;;4960080;28;20422;-80
2023/04/22 03:49:33;;;;;;;10.38;9.35;;;10.10;99.90;;;;;;4959763;28;20082;-80
2023/04/22 03:52:00;;;;;;;10.50;9.60;;;10.10;99.90;;;;;;4960874;28;20066;-80
2023/04/22 03:54:26;;;;;;;9.57;8.68;;;11.90;99.90;;;;;;4961496;28;20506;-80
2023/04/22 03:56:51;;;;;;;12.18;9.23;;;10.10;99.90;;;;;;4943579;28;20061;-80
2023/04/22 03:59:17;;;;;;;9.95;9.05;;;10.10;99.90;;;;;;4959153;28;20191;-80
2023/04/22 04:01:45;;;;;;;10.20;9.13;;;10.20;99.90;;;;;;4958944;28;20570;-81
2023/04/22 04:04:11;;;;;;;9.10;8.30;;;11.20;99.90;;;;;;4958756;28;20050;-80
2023/04/22 04:06:37;;;;;;;10.52;8.55;;;11.40;99.90;;;;;;4959889;28;20649;-80
2023/04/22 04:09:03;;;;;;;8.95;8.18;;;10.60;99.90;;;;;;4944257;28;20054;-80
2023/04/22 04:11:29;;;;;;;9.32;8.38;;;10.00;99.90;;;;;;4962861;28;20059;-80
2023/04/22 04:13:55;;;;;;;10.05;9.05;;;12.20;99.90;;;;;;4961569;28;20061;-80
2023/04/22 04:16:21;;;;;;;9.85;8.85;;;9.90;99.90;;;;;;4943238;28;20047;-80
2023/04/22 04:18:50;;;;;;;9.40;8.45;;;10.00;99.90;;;;;;4959442;28;20522;-80
2023/04/22 04:21:15;;;;;;;12.48;10.68;;;9.90;99.90;;;;;;4961692;28;20358;-80
2023/04/22 04:23:41;;;;;;;12.25;9.43;;;9.90;99.90;;;;;;4942612;28;20137;-80
2023/04/22 04:26:07;;;;;;;10.30;9.30;;;9.90;99.90;;;;;;4963977;28;20069;-80
2023/04/22 04:28:34;;;;;;;10.80;9.80;;;9.90;99.90;;;;;;4965088;28;20133;-81
2023/04/22 04:31:01;;;;;;;10.35;9.45;;;9.90;99.90;;;;;;4943029;28;20051;-79
2023/04/22 04:33:28;;;;;;;10.25;9.20;;;10.70;99.90;;;;;;4961873;28;20146;-79
2023/04/22 04:35:54;;;;;;;11.15;9.88;;;9.80;99.90;;;;;;4965241;28;20061;-79
2023/04/22 04:38:19;;;;;;;10.65;9.57;;;10.90;99.90;;;;;;4939432;28;20050;-79
2023/04/22 04:40:45;;;;;;;12.40;9.85;;;10.70;99.90;;;;;;4947189;28;20134;-79
2023/04/22 04:43:11;;;;;;;12.68;9.98;;;11.60;99.90;;;;;;4966053;28;20138;-78
2023/04/22 04:45:38;;;;;;;9.68;8.85;;;10.90;99.90;;;;;;4964252;28;20051;-79
2023/04/22 04:48:05;;;;;;;10.82;9.52;;;11.10;99.90;;;;;;4962333;28;20061;-80
2023/04/22 04:50:32;;;;;;;11.07;9.98;;;9.70;99.90;;;;;;4965582;28;20086;-79
2023/04/22 04:52:57;;;;;;;11.18;10.07;;;10.60;99.90;;;;;;4956000;28;20276;-79
2023/04/22 04:55:23;;;;;;;10.80;9.68;;;9.50;99.90;;;;;;4970629;28;20059;-80
2023/04/22 04:57:49;;;;;;;10.85;9.73;;;9.60;99.90;;;;;;4968558;28;20054;-79
2023/04/22 05:00:15;;;;;;;12.07;10.43;;;9.50;99.90;;;;;;4953561;28;20538;-79
2023/04/22 05:02:40;;;;;;;10.27;9.27;;;9.50;99.90;;;;;;4928124;28;20047;-79
2023/04/22 05:05:07;;;;;;;9.88;8.93;;;11.60;99.90;;;;;;4973011;28;20093;-79
2023/04/22 05:07:33;;;;;;;9.82;8.93;;;9.50;99.90;;;;;;4941207;28;20055;-79
2023/04/22 05:09:59;;;;;;;11.98;9.50;;;9.60;99.90;;;;;;4961543;28;20407;-79
2023/04/22 05:12:27;;;;;;;13.75;10.30;;;11.80;99.90;;;;;;4942353;28;20058;-80
2023/04/22 05:14:53;;;;;;;10.70;9.70;;;9.60;99.90;;;;;;4964833;28;20059;-80
2023/04/22 05:17:19;;;;;;;10.93;9.43;;;9.40;99.90;;;;;;4962788;28;20061;-80
2023/04/22 05:19:45;;;;;;;13.25;9.75;;;9.60;99.90;;;;;;4962840;28;20073;-81
2023/04/22 05:22:11;;;;;;;10.10;8.98;;;9.70;99.90;;;;;;4957263;28;20094;-80
2023/04/22 05:24:37;;;;;;;9.82;8.82;;;11.70;99.90;;;;;;4970566;28;20060;-81
2023/04/22 05:27:03;;;;;;;10.88;9.75;;;11.80;99.90;;;;;;4970859;28;21471;-80
2023/04/22 05:29:28;;;;;;;12.95;9.70;;;9.80;99.90;;;;;;4961051;28;20141;-80
2023/04/22 05:31:54;;;;;;;10.48;9.45;;;11.20;99.90;;;;;;4972847;28;20450;-81
2023/04/22 05:34:20;;;;;;;12.05;10.85;;;10.30;99.90;;;;;;4936351;28;20059;-81
2023/04/22 05:36:46;;;;;;;10.85;9.80;;;9.80;99.90;;;;;;4931117;28;20051;-80
2023/04/22 05:39:11;;;;;;;11.10;10.13;;;11.60;99.90;;;;;;4950270;28;20046;-79
2023/04/22 05:41:37;;;;;;;9.95;8.95;;;9.70;99.90;;;;;;4961867;28;20051;-80
2023/04/22 05:44:03;;;;;;;10.48;9.40;;;9.70;99.90;;;;;;4945375;28;20058;-80
2023/04/22 05:46:28;;;;;;;10.23;9.10;;;10.00;99.90;;;;;;4960550;28;20452;-80
2023/04/22 05:48:57;;;;;;;9.77;8.88;;;10.90;99.90;;;;;;4965489;28;20446;-80
2023/04/22 05:51:22;;;;;;;9.30;8.40;;;9.70;99.90;;;;;;4962744;28;20055;-80
2023/04/22 05:53:49;;;;;;;10.43;9.00;;;12.20;99.90;;;;;;4962191;28;20129;-80
2023/04/22 05:56:15;;;;;;;10.68;8.20;;;11.40;99.90;;;;;;4964570;28;20828;-80
2023/04/22 05:58:41;;;;;;;8.23;7.43;;;12.10;99.90;;;;;;4962007;28;20125;-80
2023/04/22 06:01:07;;;;;;;9.45;8.20;;;;;;;;;;4967824;28;20486;-81
2023/04/22 06:03:36;;;;;;;9.85;8.75;;;10.00;99.90;;;;;;4945614;28;20051;-81
2023/04/22 06:06:01;;;;;;;9.85;8.85;;;10.00;99.90;;;;;;4966510;28;20039;-81
2023/04/22 06:08:28;;;;;;;9.95;8.63;;;10.00;99.90;;;;;;4952366;28;20053;-80
2023/04/22 06:10:57;;;;;;;8.35;7.65;;;9.90;99.90;;;;;;4935364;29;20063;-81
2023/04/22 06:13:30;;;;;;;8.65;7.70;;;10.00;99.90;;;;;;4944549;29;20407;-80
2023/04/22 06:15:57;;;;;;;9.25;8.35;;;10.00;99.90;;;;;;4959980;28;20110;-80
2023/04/22 06:18:23;;;;;;;11.25;8.48;;;10.20;99.90;;;;;;4942553;29;20130;-80
2023/04/22 06:20:50;;;;;;;10.70;8.55;;;11.20;99.90;;;;;;4930430;28;20473;-80
2023/04/22 06:23:16;;;;;;;9.20;8.32;;;10.20;99.90;;;;;;4949671;28;20047;-81
2023/04/22 06:25:43;;;;;;;10.82;8.60;;;10.40;99.90;;;;;;4962740;28;20078;-80
2023/04/22 06:28:12;;;;;;;11.85;8.43;;;10.70;99.90;;;;;;4964292;28;20407;-80
2023/04/22 06:30:37;;;;;;;9.77;8.88;;;10.40;99.90;;;;;;4966672;28;20512;-80
2023/04/22 06:33:03;;;;;;;9.45;8.32;;;10.30;99.90;;;;;;4964370;28;20203;-79
2023/04/22 06:35:30;;;;;;;9.30;8.13;;;12.50;99.90;;;;;;4952933;28;20066;-80
2023/04/22 06:37:57;;;;;;;8.65;7.95;;;10.20;99.90;;;;;;4968569;28;20469;-81
2023/04/22 06:40:22;;;;;;;8.88;8.07;;;12.20;99.90;;;;;;4968626;28;20137;-81
2023/04/22 06:42:48;;;;;;;9.45;7.70;;;10.20;99.90;;;;;;4945246;28;20506;-81
2023/04/22 06:45:14;;;;;;;9.77;8.80;;;;;;;;;;4943135;29;20055;-80
2023/04/22 06:47:40;;;;;;;11.00;9.77;;;10.40;99.90;;;;;;4965382;28;20134;-80
2023/04/22 06:50:07;;;;;;;10.23;8.80;;;10.40;99.90;;;;;;4943446;29;20051;-81
2023/04/22 06:52:34;;;;;;;10.25;9.15;;;10.40;99.90;;;;;;4960326;28;20057;-80
2023/04/22 06:55:02;;;;;;;11.20;8.57;;;;;;;;;;4982222;28;20454;-80
2023/04/22 06:57:28;;;;;;;9.60;8.70;;;10.50;99.90;;;;;;4926905;28;20050;-78
2023/04/22 06:59:54;;;;;;;9.80;8.90;;;;;;;;;;4941819;28;20129;-79
2023/04/22 07:02:20;;;;;;;10.57;9.13;;;10.60;99.90;;;;;;4978022;28;20046;-79
2023/04/22 07:04:47;;;;;;;14.38;8.95;;;10.60;99.90;;;;;;4944956;28;20603;-80
2023/04/22 07:07:13;;;;;;;10.15;9.25;;;10.70;99.90;;;;;;4944207;28;20058;-80
2023/04/22 07:09:40;;;;;;;10.15;9.23;;;10.70;99.90;;;;;;4966878;28;20109;-80
2023/04/22 07:12:05;;;;;;;10.10;9.20;;;11.60;99.90;;;;;;4959932;28;20051;-81
2023/04/22 07:14:32;;;;;;;11.88;9.85;;;10.90;99.90;;;;;;4957006;28;20053;-80
2023/04/22 07:16:59;;;;;;;11.13;10.13;;;10.30;99.90;;;;;;4936886;28;20055;-80
2023/04/22 07:19:28;;;;;;;10.30;9.25;;;11.90;99.90;;;;;;4959040;28;20058;-79
2023/04/22 07:21:55;;;;;;;10.95;9.82;;;11.00;99.90;;;;;;4950389;28;20051;-80
2023/04/22 07:24:22;;;;;;;11.50;10.32;;;11.30;99.90;;;;;;4964281;28;20071;-79
2023/04/22 07:26:48;;;;;;;11.65;10.45;;;11.10;99.90;;;;;;4959934;28;20091;-80
2023/04/22 07:29:13;;;;;;;14.57;11.98;;;12.40;99.90;;;;;;4944507;29;20699;-81
2023/04/22 07:31:39;;;;;;;12.18;10.98;;;11.20;99.90;;;;;;4961965;28;20099;-81
2023/04/22 07:34:05;;;;;;;11.63;10.48;;;11.20;99.90;;;;;;4952695;28;20054;-80
2023/04/22 07:36:33;;;;;;;11.00;9.45;;;13.50;99.90;;;;;;4945938;28;20051;-81
2023/04/22 07:38:59;;;;;;;10.15;9.15;;;13.30;99.90;;;;;;4969342;28;20046;-81
2023/04/22 07:41:25;;;;;;;10.55;9.45;;;12.10;99.90;;;;;;4968413;28;20130;-79
2023/04/22 07:43:50;;;;;;;9.68;8.77;;;11.40;99.90;;;;;;4949017;28;20085;-80
2023/04/22 07:46:16;;;;;;;10.60;9.60;;;11.70;99.90;;;;;;4946358;28;20047;-80
2023/04/22 07:48:41;;;;;;;10.55;9.63;;;13.80;99.90;;;;;;4951099;28;20047;-80
2023/04/22 07:51:07;;;;;;;11.23;10.05;;;11.60;99.90;;;;;;4962062;28;20179;-81
2023/04/22 07:53:33;;;;;;;12.55;9.70;;;11.70;99.90;;;;;;4944686;28;20054;-81
2023/04/22 07:56:00;;;;;;;11.63;10.45;;;11.70;99.90;;;;;;4974078;28;20043;-81
2023/04/22 07:58:26;;;;;;;11.43;10.18;;;11.80;99.90;;;;;;4958695;28;20622;-81
2023/04/22 08:00:52;;;;;;;11.60;9.60;;;13.20;99.90;;;;;;4962317;28;20134;-81
2023/04/22 08:03:18;;;;;;;11.88;9.30;;;11.80;99.90;;;;;;4951174;28;20153;-81
2023/04/22 08:05:43;;;;;;;10.55;9.45;;;11.90;99.90;;;;;;4963398;28;20047;-82
2023/04/22 08:08:09;;;;;;;9.60;8.70;;;14.10;99.90;;;;;;4966630;28;20042;-81
2023/04/22 08:10:34;;;;;;;10.27;9.32;;;13.50;99.90;;;;;;4967519;28;20066;-82
2023/04/22 08:13:00;;;;;;;11.82;10.25;;;12.10;99.90;;;;;;4973333;28;20060;-81
2023/04/22 08:15:26;;;;;;;11.52;10.35;;;12.10;99.90;;;;;;4971106;28;20061;-80
2023/04/22 08:17:54;;;;;;;11.25;10.25;;;12.20;99.90;;;;;;4964843;28;20051;-83
2023/04/22 08:20:20;;;;;;;10.82;9.82;;;13.40;99.90;;;;;;4965350;28;20457;-82
2023/04/22 08:22:46;;;;;;;11.98;10.88;;;12.90;99.90;;;;;;4970396;28;20113;-83
2023/04/22 08:25:12;;;;;;;11.60;10.50;;;13.20;99.90;;;;;;4969908;28;20046;-84
2023/04/22 08:27:37;;;;;;;12.65;10.80;;;12.80;99.90;;;;;;4963987;28;20160;-85
2023/04/22 08:30:05;;;;;;;11.45;10.25;;;12.50;99.90;;;;;;4963275;28;20447;-85
2023/04/22 08:32:30;;;;;;;11.38;10.38;;;12.60;99.90;;;;;;4950969;28;20503;-86
2023/04/22 08:34:56;;;;;;;10.52;9.52;;;14.60;99.90;;;;;;4964883;28;20055;-85
2023/04/22 08:37:22;;;;;;;12.38;9.57;;;12.70;99.90;;;;;;4964548;28;20105;-84
2023/04/22 08:39:47;;;;;;;10.73;9.73;;;13.00;99.90;;;;;;4967041;28;20094;-84
2023/04/22 08:42:14;;;;;;;10.88;9.88;;;14.50;99.90;;;;;;4958669;28;20062;-82
2023/04/22 08:44:40;;;;;;;10.77;9.77;;;13.00;99.90;;;;;;4958741;28;20062;-82
2023/04/22 08:47:08;;;;;;;10.27;9.48;;;14.20;99.90;;;;;;4966040;28;20146;-82
2023/04/22 08:49:35;;;;;;;10.45;9.45;;;14.50;99.90;;;;;;4973619;28;20065;-82
2023/04/22 08:52:00;;;;;;;13.02;9.60;;;13.10;99.90;;;;;;4953137;28;20054;-82
2023/04/22 08:54:26;;;;;;;10.23;9.15;;;13.30;99.90;;;;;;4966678;28;20062;-82
2023/04/22 08:56:52;;;;;;;10.30;9.38;;;13.70;99.90;;;;;;4966134;28;20042;-80
2023/04/22 08:59:21;;;;;;;9.30;8.50;;;14.50;99.90;;;;;;4971058;28;20069;-85
2023/04/22 09:01:52;;;;;;;10.68;9.60;;;13.50;99.90;;;;;;4963579;28;20081;-84
2023/04/22 09:04:18;;;;;;;10.95;9.43;;;14.40;99.90;;;;;;4968568;28;20062;-84
2023/04/22 09:06:44;;;;;;;10.43;9.40;;;13.60;99.90;;;;;;4964718;28;20071;-83
2023/04/22 09:09:10;;;;;;;11.13;9.77;;;15.50;99.90;;;;;;4967247;28;20047;-83
2023/04/22 09:11:36;;;;;;;10.32;9.40;;;13.70;99.90;;;;;;4967818;28;20102;-82
2023/04/22 09:14:05;;;;;;;11.02;9.68;;;14.10;99.90;;;;;;4963712;28;20046;-82
2023/04/22 09:16:32;;;;;;;10.05;9.15;;;13.80;99.90;;;;;;4969524;28;20406;-82
2023/04/22 09:18:58;;;;;;;10.55;9.45;;;15.40;99.90;;;;;;4972051;28;20226;-80
2023/04/22 09:21:27;;;;;;;10.80;8.75;;;14.20;99.90;;;;;;4965167;28;20106;-80
2023/04/22 09:23:55;;;;;;;10.15;9.18;;;14.00;99.90;;;;;;4967520;28;20046;-81
2023/04/22 09:26:25;;;;;;;9.05;8.15;;;14.10;99.90;;;;;;4967274;28;20399;-81
2023/04/22 09:28:59;;;;;;;11.13;8.75;;;15.70;99.90;;;;;;4964923;28;20126;-79
2023/04/22 09:31:26;;;;;;;9.30;8.38;;;14.40;99.90;;;;;;4965323;28;20051;-82
2023/04/22 09:33:55;;;;;;;9.20;8.40;;;14.50;99.90;;;;;;4965840;28;20042;-80
2023/04/22 09:36:39;;;;;;;10.05;8.35;;;14.50;99.90;;;;;;4955455;28;20051;-82
2023/04/22 09:39:06;;;;;;;8.90;8.00;;;14.70;99.90;;;;;;4964771;28;20066;-82
2023/04/22 09:41:34;;;;;;;9.10;7.60;;;15.20;99.90;;;;;;4952255;28;20482;-83
2023/04/22 09:44:03;;;;;;;9.30;8.38;;;15.00;99.90;;;;;;4966288;28;20066;-84
2023/04/22 09:46:31;;;;;;;8.52;7.68;;;15.00;99.90;;;;;;4961785;28;20062;-81
2023/04/22 09:49:00;;;;;;;8.38;7.57;;;15.10;99.90;;;;;;4967538;28;20046;-83
2023/04/22 09:51:26;;;;;;;230.10;22.95;;;15.20;99.90;;;;;;4966512;28;20434;-80
2023/04/22 09:54:03;;;;;;;8.70;7.78;;;15.30;99.90;;;;;;4951077;28;20141;-80
2023/04/22 09:56:47;;;;;;;8.40;7.40;;;15.30;99.90;;;;;;4971151;28;20587;-81
2023/04/22 09:59:24;;;;;;;7.97;7.22;;;15.40;99.90;;;;;;4964495;28;20411;-80
2023/04/22 10:01:59;;;;;;;8.82;7.95;;;15.40;99.90;;;;;;4946082;28;20043;-81
2023/04/22 10:04:25;;;;;;;8.23;7.38;;;16.20;99.90;;;;;;4951994;28;20450;-81
2023/04/22 10:06:54;;;;;;;8.05;7.30;;;15.60;99.90;;;;;;4969263;28;20130;-80
2023/04/22 10:09:22;;;;;;;8.95;8.18;;;16.90;99.90;;;;;;4970495;28;20055;-80
2023/04/22 10:11:50;;;;;;;26.85;8.02;;;15.70;99.90;;;;;;4960927;28;20095;-82
2023/04/22 10:14:16;;;;;;;7.93;7.22;;;15.80;99.90;;;;;;4953851;28;20052;-82
2023/04/22 10:16:45;;;;;;;7.22;6.63;;;16.30;99.90;;;;;;4971422;28;20121;-81
2023/04/22 10:19:16;;;;;;;7.05;6.45;;;16.00;99.90;;;;;;4950756;28;20212;-82
2023/04/22 10:21:44;;;;;;;7.72;6.90;;;16.10;99.90;;;;;;4970111;28;20526;-81
2023/04/22 10:24:17;;;;;;;7.07;6.47;;;16.10;99.90;;;;;;4947856;28;20073;-81
2023/04/22 10:26:50;;;;;;;8.45;6.10;;;16.60;99.90;;;;;;4948727;28;20050;-81
2023/04/22 10:29:20;;;;;;;5.72;5.20;;;16.30;99.90;;;;;;4977286;28;20053;-81
2023/04/22 10:31:55;;;;;;;7.63;6.25;;;17.70;99.90;;;;;;4964664;28;20118;-82
2023/04/22 10:34:22;;;;;;;6.20;5.70;;;18.00;99.90;;;;;;4942573;28;20058;-82
2023/04/22 10:37:05;;;;;;;7.47;6.75;;;16.70;99.90;;;;;;4967620;28;20039;-81
2023/04/22 10:39:31;;;;;;;7.35;6.65;;;16.80;99.90;;;;;;4953907;28;20054;-78
2023/04/22 10:42:08;;;;;;;5.75;5.20;;;16.90;99.90;;;;;;4944259;28;20392;-79
2023/04/22 10:44:52;;;;;;;5.93;5.43;;;16.90;99.90;;;;;;4962561;28;20055;-80
2023/04/22 10:47:25;;;;;;;6.18;5.50;;;17.00;99.90;;;;;;4942443;28;20062;-80
2023/04/22 10:49:51;;;;;;;7.03;5.63;;;17.20;99.90;;;;;;4966960;28;20089;-80
2023/04/22 10:52:29;;;;;;;8.23;5.90;;;17.20;99.90;;;;;;4975050;28;20043;-80
2023/04/22 10:54:56;;;;;;;9.90;5.78;;;17.30;99.90;;;;;;4953149;28;20054;-80
2023/04/22 10:57:29;;;;;;;7.03;5.85;;;17.40;99.90;;;;;;4966571;28;20070;-84
2023/04/22 10:59:59;;;;;;;8.07;6.95;;;17.60;99.90;;;;;;4965253;28;20050;-84
2023/04/22 11:02:24;;;;;;;5.68;4.85;;;17.60;99.90;;;;;;4950139;28;20047;-84
2023/04/22 11:04:53;;;;;;;5.05;4.55;;;19.30;99.90;;;;;;4969186;28;20070;-85
2023/04/22 11:07:21;;;;;;;5.13;4.72;;;17.80;99.90;;;;;;4960199;28;20455;-86
2023/04/22 11:09:52;;;;;;;7.40;5.45;;;17.90;99.90;;;;;;4942276;28;20147;-90
2023/04/22 11:12:46;;;;;;;5.30;4.78;;;18.20;99.90;;;;;;4947119;28;20072;-90
2023/04/22 11:15:57;;;;;;;5.45;4.80;;;18.20;99.90;;;;;;4965801;28;20415;-88
2023/04/22 11:19:56;;;;;;;4.90;4.50;;;18.40;99.90;;;;;;4925857;29;20474;-91
2023/04/22 11:22:47;;;;;;;5.10;4.65;;;17.30;99.90;;;;;;4936864;28;20075;-86
2023/04/22 11:26:37;;;;;;;5.90;5.15;;;18.60;99.90;;;;;;4937910;28;20134;-81
2023/04/22 11:29:22;;;;;;;6.28;4.78;;;18.80;99.90;;;;;;4923642;29;20713;-83
2023/04/22 11:31:48;;;;;;;5.22;4.72;;;18.90;99.90;;;;;;4940507;29;20126;-84
2023/04/22 11:34:14;;;;;;;5.38;4.60;;;18.90;99.90;;;;;;4922010;29;20538;-83
2023/04/22 11:36:44;;;;;;;5.38;4.88;;;20.10;99.90;;;;;;4905901;29;20378;-81
2023/04/22 11:39:13;;;;;;;5.68;5.07;;;19.00;99.90;;;;;;4909969;28;20541;-82
2023/04/22 11:41:42;;;;;;;8.65;4.72;;;20.50;99.90;;;;;;4931478;29;20059;-82
2023/04/22 11:44:08;;;;;;;5.90;5.40;;;19.90;99.90;;;;;;4923785;29;20059;-85
2023/04/22 11:46:38;;;;;;;9.57;4.18;;;19.00;99.90;;;;;;4935884;29;20199;-84
2023/04/22 11:49:16;;;;;;;13.02;5.03;;;19.00;99.90;;;;;;4948348;28;20125;-85
2023/04/22 11:51:55;;;;;;;5.40;4.90;;;20.30;99.90;;;;;;4963358;28;20082;-84
2023/04/22 11:54:47;;;;;;;4.90;4.47;;;19.60;99.90;;;;;;4961838;28;20086;-83
2023/04/22 11:57:15;;;;;;;14.63;5.15;;;19.30;99.90;;;;;;4951411;28;20047;-84
2023/04/22 11:59:41;;;;;;;12.32;5.10;;;19.30;99.90;;;;;;4969644;28;20059;-85
2023/04/22 12:02:07;;;;;;;9.82;4.82;;;19.50;99.90;;;;;;4941757;28;20435;-84
2023/04/22 12:04:40;;;;;;;5.85;4.93;;;20.10;99.90;;;;;;4962401;28;20505;-85
2023/04/22 12:07:06;;;;;;;4.18;3.78;;;19.50;99.90;;;;;;4962450;28;20043;-85
2023/04/22 12:09:33;;;;;;;4.53;4.13;;;19.50;99.90;;;;;;4956504;28;20059;-85
2023/04/22 12:11:58;;;;;;;4.22;3.78;;;20.10;99.90;;;;;;4942829;28;20038;-84
2023/04/22 12:14:34;;;;;;;11.18;4.90;;;19.50;99.90;;;;;;4949862;28;20543;-84
2023/04/22 12:17:06;;;;;;;6.63;4.88;;;19.40;99.90;;;;;;4958499;28;20107;-83
2023/04/22 12:19:32;;;;;;;40.83;5.93;;;19.50;99.90;;;;;;4926544;29;20051;-78
2023/04/22 12:21:58;;;;;;;7.35;4.93;;;19.50;99.90;;;;;;4961563;28;20098;-83
2023/04/22 12:24:28;;;;;;;18.15;5.75;;;19.40;99.90;;;;;;4952730;28;20066;-83
2023/04/22 12:26:53;;;;;;;9.43;5.03;;;19.30;99.90;;;;;;4962853;28;20054;-81
2023/04/22 12:29:29;;;;;;;10.07;5.50;;;19.20;99.90;;;;;;4966257;28;20502;-80
2023/04/22 12:31:55;;;;;;;5.95;5.35;;;19.30;99.90;;;;;;4964610;28;20038;-81
2023/04/22 12:34:21;;;;;;;5.50;4.80;;;19.10;99.90;;;;;;4974903;28;20051;-81
2023/04/22 12:36:47;;;;;;;13.38;5.43;;;19.10;99.90;;;;;;4962753;28;20090;-81
2023/04/22 12:39:14;;;;;;;9.07;6.18;;;19.20;99.90;;;;;;4967908;28;20055;-81
2023/04/22 12:41:40;;;;;;;7.03;5.53;;;19.30;99.90;;;;;;4941729;29;20554;-82
2023/04/22 12:44:07;;;;;;;8.30;5.28;;;19.40;99.90;;;;;;4957901;28;20543;-81
2023/04/22 12:46:32;;;;;;;6.10;5.50;;;19.30;99.90;;;;;;4961938;28;20050;-81
2023/04/22 12:48:58;;;;;;;7.70;5.72;;;19.40;99.90;;;;;;4913193;28;20051;-81